createdAt,value
2023-03-19T00:03:03.588Z,15.53
2023-03-19T00:08:08.872Z,27.60
2023-03-19T00:13:13.973Z,25.20
2023-03-19T00:18:19.059Z,34.30
2023-03-19T00:23:24.331Z,21.30
2023-03-19T00:28:30.069Z,23.83
2023-03-19T00:33:35.130Z,16.97
2023-03-19T00:38:40.536Z,18.07
2023-03-19T00:43:46.590Z,24.07
2023-03-19T00:48:53.562Z,29.60
2023-03-19T00:53:58.677Z,28.70
2023-03-19T00:59:03.791Z,21.43
2023-03-19T01:04:09.907Z,21.67
2023-03-19T01:09:15.600Z,20.43
2023-03-19T01:14:20.703Z,23.43
2023-03-19T01:19:25.898Z,25.70
2023-03-19T01:24:32.390Z,22.50
2023-03-19T01:29:38.216Z,22.57
2023-03-19T01:34:43.748Z,25.20
2023-03-19T01:39:49.028Z,28.83
2023-03-19T01:44:54.633Z,18.57
2023-03-19T01:50:01.387Z,27.20
2023-03-19T01:55:07.671Z,27.83
2023-03-19T02:00:14.635Z,26.20
2023-03-19T02:05:23.173Z,28.50
2023-03-19T02:10:29.710Z,22.67
2023-03-19T02:15:34.929Z,31.73
2023-03-19T02:20:46.710Z,23.27
2023-03-19T02:25:57.494Z,21.03
2023-03-19T02:31:02.806Z,25.17
2023-03-19T02:36:13.604Z,23.37
2023-03-19T02:41:19.653Z,34.63
2023-03-19T02:46:25.582Z,22.03
2023-03-19T02:51:30.849Z,17.17
2023-03-19T02:56:37.085Z,20.77
2023-03-19T03:01:42.334Z,16.27
2023-03-19T03:06:47.408Z,27.07
2023-03-19T03:11:52.680Z,35.40
2023-03-19T03:16:58.779Z,24.30
2023-03-19T03:22:08.313Z,40.73
2023-03-19T03:27:13.544Z,25.10
2023-03-19T03:32:18.865Z,27.37
2023-03-19T03:37:24.131Z,18.00
2023-03-19T03:42:29.248Z,22.83
2023-03-19T03:47:34.469Z,22.33
2023-03-19T03:52:41.328Z,26.93
2023-03-19T03:57:46.541Z,29.97
2023-03-19T04:02:54.027Z,24.30
2023-03-19T04:07:59.332Z,27.37
2023-03-19T04:13:04.880Z,24.67
2023-03-19T04:18:10.060Z,25.20
2023-03-19T04:23:15.154Z,26.00
2023-03-19T04:28:20.415Z,27.70
2023-03-19T04:33:25.657Z,31.47
2023-03-19T04:38:32.450Z,29.63
2023-03-19T04:43:37.795Z,25.57
2023-03-19T04:48:43.646Z,35.57
2023-03-19T04:53:49.904Z,28.57
2023-03-19T04:58:55.239Z,30.13
2023-03-19T05:04:00.576Z,32.10
2023-03-19T05:09:08.020Z,18.83
2023-03-19T05:14:13.757Z,17.73
2023-03-19T05:19:18.790Z,20.63
2023-03-19T05:24:24.625Z,27.03
2023-03-19T05:29:29.791Z,14.20
2023-03-19T05:34:34.959Z,22.83
2023-03-19T05:39:40.109Z,24.13
2023-03-19T05:44:45.259Z,35.97
2023-03-19T05:49:51.439Z,30.70
2023-03-19T05:54:56.854Z,31.50
2023-03-19T06:00:02.085Z,25.10
2023-03-19T06:05:07.638Z,26.23
2023-03-19T06:10:13.366Z,37.80
2023-03-19T06:15:18.749Z,29.47
2023-03-19T06:20:23.970Z,29.90
2023-03-19T06:25:29.151Z,26.93
2023-03-19T06:30:35.184Z,33.53
2023-03-19T06:35:41.802Z,35.37
2023-03-19T06:40:47.103Z,50.40
2023-03-19T06:45:52.257Z,49.40
2023-03-19T06:50:57.996Z,49.50
2023-03-19T06:56:03.671Z,79.13
2023-03-19T07:01:09.679Z,54.47
2023-03-19T07:06:14.927Z,128.00
2023-03-19T07:11:20.082Z,45.70
2023-03-19T07:16:25.483Z,34.20
2023-03-19T07:21:31.456Z,40.63
2023-03-19T07:26:36.777Z,28.20
2023-03-19T07:31:42.546Z,33.43
2023-03-19T07:36:47.735Z,30.77
2023-03-19T07:41:52.995Z,40.00
2023-03-19T07:46:58.255Z,33.30
2023-03-19T07:52:05.072Z,31.37
2023-03-19T07:57:10.279Z,29.70
2023-03-19T08:02:16.267Z,27.40
2023-03-19T08:07:22.041Z,29.47
2023-03-19T08:12:27.228Z,30.97
2023-03-19T08:17:34.142Z,28.47
2023-03-19T08:22:40.829Z,38.03
2023-03-19T08:27:46.051Z,37.73
2023-03-19T08:32:51.423Z,38.17
2023-03-19T08:37:57.469Z,39.40
2023-03-19T08:43:03.496Z,34.73
2023-03-19T08:48:08.698Z,26.87
2023-03-19T08:53:13.763Z,37.97
2023-03-19T08:58:18.904Z,39.00
2023-03-19T09:03:24.157Z,30.90
2023-03-19T09:08:31.048Z,41.87
2023-03-19T09:13:36.879Z,33.27
2023-03-19T09:18:43.304Z,27.53
2023-03-19T09:23:48.592Z,35.27
2023-03-19T09:28:53.884Z,30.87
2023-03-19T09:33:59.088Z,31.67
2023-03-19T09:39:06.604Z,40.03
2023-03-19T09:44:32.881Z,25.60
2023-03-19T09:49:41.699Z,35.17
2023-03-19T09:54:51.532Z,28.03
2023-03-19T09:59:57.386Z,44.57
2023-03-19T10:05:14.232Z,33.67
2023-03-19T10:10:48.613Z,28.37
2023-03-19T10:15:56.872Z,30.80
2023-03-19T10:21:09.177Z,25.00
2023-03-19T10:26:17.388Z,24.27
2023-03-19T10:31:38.046Z,25.83
2023-03-19T10:36:43.262Z,35.90
2023-03-19T10:41:54.222Z,26.83
2023-03-19T10:47:02.501Z,37.33
2023-03-19T10:52:27.147Z,35.73
2023-03-19T10:57:34.045Z,31.03
2023-03-19T11:02:40.789Z,30.80
2023-03-19T11:07:47.793Z,21.43
2023-03-19T11:12:58.622Z,22.50
2023-03-19T11:18:40.222Z,20.87
2023-03-19T11:23:45.900Z,23.90
2023-03-19T11:28:53.207Z,20.13
2023-03-19T11:34:19.239Z,24.50
2023-03-19T11:39:33.372Z,23.60
2023-03-19T11:44:44.463Z,25.90
2023-03-19T11:50:01.667Z,24.20
2023-03-19T11:55:16.016Z,21.47
2023-03-19T12:00:33.583Z,21.73
2023-03-19T12:05:58.332Z,20.73
2023-03-19T12:11:22.159Z,23.47
2023-03-19T12:16:33.631Z,18.27
2023-03-19T12:22:19.584Z,18.37
2023-03-19T12:27:53.643Z,18.93
2023-03-19T12:33:21.107Z,24.13
2023-03-19T12:38:29.268Z,24.77
2023-03-19T12:43:55.335Z,22.07
2023-03-19T12:49:06.657Z,23.13
2023-03-19T12:54:23.525Z,21.93
2023-03-19T12:59:46.552Z,23.03
2023-03-19T13:04:58.280Z,23.47
2023-03-19T13:10:08.852Z,24.73
2023-03-19T13:15:33.324Z,26.73
2023-03-19T13:20:50.429Z,24.47
2023-03-19T13:25:59.272Z,28.50
2023-03-19T13:31:10.094Z,26.87
2023-03-19T13:36:17.588Z,22.13
2023-03-19T13:41:41.907Z,25.83
2023-03-19T13:46:47.199Z,22.13
2023-03-19T13:51:54.507Z,20.33
2023-03-19T13:57:07.215Z,21.27
2023-03-19T14:02:27.532Z,22.57
2023-03-19T14:07:40.775Z,22.60
2023-03-19T14:12:46.934Z,21.10
2023-03-19T14:17:58.524Z,25.13
2023-03-19T14:23:23.529Z,21.93
2023-03-19T14:28:45.727Z,35.57
2023-03-19T14:34:13.534Z,21.33
2023-03-19T14:39:31.611Z,28.37
2023-03-19T14:44:48.528Z,24.93
2023-03-19T14:49:59.686Z,21.07
2023-03-19T14:55:13.788Z,26.50
2023-03-19T15:00:20.577Z,19.77
2023-03-19T15:05:33.330Z,25.07
2023-03-19T15:11:16.974Z,19.83
2023-03-19T15:16:31.022Z,21.43
2023-03-19T15:21:37.786Z,27.30
2023-03-19T15:26:43.038Z,24.10
2023-03-19T15:32:02.467Z,25.10
2023-03-19T15:37:04.247Z,27.47
2023-03-19T15:42:09.729Z,25.63
2023-03-19T15:47:20.650Z,24.80
2023-03-19T15:52:27.132Z,26.60
2023-03-19T15:57:32.817Z,37.17
2023-03-19T16:02:43.312Z,26.63
2023-03-19T16:07:53.211Z,25.03
2023-03-19T16:13:01.473Z,31.30
2023-03-19T16:18:21.745Z,59.97
2023-03-19T16:23:35.543Z,33.67
2023-03-19T16:28:45.344Z,42.17
2023-03-19T16:33:54.244Z,41.87
2023-03-19T16:39:19.685Z,50.43
2023-03-19T16:44:30.223Z,43.83
2023-03-19T16:49:34.718Z,47.13
2023-03-19T16:54:39.785Z,42.20
2023-03-19T16:59:47.870Z,33.03
2023-03-19T17:04:53.490Z,25.97
2023-03-19T17:09:59.867Z,30.63
2023-03-19T17:15:06.219Z,29.73
2023-03-19T17:20:24.579Z,51.87
2023-03-19T17:25:29.828Z,31.23
2023-03-19T17:30:35.947Z,46.13
2023-03-19T17:35:41.596Z,33.70
2023-03-19T17:40:48.024Z,39.53
2023-03-19T17:45:54.759Z,39.83
2023-03-19T17:51:02.467Z,37.63
2023-03-19T17:56:07.804Z,41.50
2023-03-19T18:01:21.654Z,42.60
2023-03-19T18:06:29.481Z,54.13
2023-03-19T18:11:34.557Z,55.33
2023-03-19T18:16:40.886Z,84.30
2023-03-19T18:21:46.236Z,56.50
2023-03-19T18:26:51.539Z,48.40
2023-03-19T18:31:59.781Z,42.30
2023-03-19T18:37:06.543Z,42.37
2023-03-19T18:42:14.417Z,34.60
2023-03-19T18:47:19.843Z,38.53
2023-03-19T18:52:25.098Z,44.93
2023-03-19T18:57:31.510Z,38.20
2023-03-19T19:02:37.732Z,67.13
2023-03-19T19:07:43.235Z,72.67
2023-03-19T19:12:52.479Z,77.03
2023-03-19T19:17:58.434Z,61.63
2023-03-19T19:23:03.537Z,58.93
2023-03-19T19:28:14.986Z,57.73
2023-03-19T19:33:23.077Z,62.67
2023-03-19T19:38:28.723Z,64.57
2023-03-19T19:43:34.007Z,67.03
2023-03-19T19:48:39.769Z,73.10
2023-03-19T19:53:44.991Z,72.47
2023-03-19T19:58:53.205Z,95.13
2023-03-19T20:03:58.578Z,92.07
2023-03-19T20:09:03.980Z,82.30
2023-03-19T20:14:12.117Z,56.33
2023-03-19T20:19:20.460Z,77.07
2023-03-19T20:24:26.230Z,64.87
2023-03-19T20:29:34.382Z,57.20
2023-03-19T20:34:39.917Z,95.07
2023-03-19T20:39:48.449Z,95.30
2023-03-19T20:44:57.677Z,110.23
2023-03-19T20:50:02.834Z,111.90
2023-03-19T20:55:08.558Z,111.60
2023-03-19T21:00:23.115Z,104.30
2023-03-19T21:05:39.542Z,93.20
2023-03-19T21:10:46.361Z,93.97
2023-03-19T21:15:51.978Z,99.67
2023-03-19T21:20:58.991Z,107.47
2023-03-19T21:26:10.183Z,115.27
2023-03-19T21:31:20.922Z,99.20
2023-03-19T21:36:27.991Z,129.33
2023-03-19T21:41:35.302Z,136.13
2023-03-19T21:46:41.236Z,173.30
2023-03-19T21:51:47.137Z,123.43
2023-03-19T21:56:52.472Z,104.63
2023-03-19T22:01:58.118Z,93.17
2023-03-19T22:07:03.355Z,97.30
2023-03-19T22:12:11.791Z,103.03
2023-03-19T22:17:17.031Z,105.60
2023-03-19T22:22:22.047Z,95.77
2023-03-19T22:27:27.276Z,99.23
2023-03-19T22:32:32.367Z,105.07
2023-03-19T22:37:38.157Z,75.93
2023-03-19T22:42:44.116Z,93.47
2023-03-19T22:47:49.695Z,71.93
2023-03-19T22:52:55.148Z,72.70
2023-03-19T22:58:00.445Z,81.67
2023-03-19T23:03:08.598Z,62.43
2023-03-19T23:08:18.603Z,62.23
2023-03-19T23:13:24.291Z,70.03
2023-03-19T23:18:35.148Z,73.43
2023-03-19T23:23:40.493Z,84.23
2023-03-19T23:28:46.965Z,63.00
2023-03-19T23:33:52.314Z,75.10
2023-03-19T23:38:59.299Z,86.03
2023-03-19T23:44:06.795Z,76.53
2023-03-19T23:49:14.887Z,70.50
2023-03-19T23:54:27.712Z,61.33
2023-03-19T23:59:36.196Z,58.87
